createdAt,value
2019-01-30T00:00:13.408Z,0.00
2019-01-30T00:01:13.333Z,0.00
2019-01-30T00:02:13.228Z,0.00
2019-01-30T00:03:13.138Z,0.00
2019-01-30T00:04:13.047Z,0.00
2019-01-30T00:05:12.957Z,0.00
2019-01-30T00:06:12.874Z,0.00
2019-01-30T00:07:12.775Z,0.00
2019-01-30T00:08:12.689Z,0.00
2019-01-30T00:09:12.599Z,0.00
2019-01-30T00:10:12.506Z,0.00
2019-01-30T00:11:12.418Z,0.00
2019-01-30T00:12:12.327Z,0.00
2019-01-30T00:13:12.237Z,0.00
2019-01-30T00:14:12.147Z,0.00
2019-01-30T00:15:12.063Z,0.00
2019-01-30T00:16:11.967Z,0.00
2019-01-30T00:17:11.882Z,0.00
2019-01-30T00:18:11.786Z,0.00
2019-01-30T00:19:11.715Z,0.00
2019-01-30T00:20:11.607Z,0.00
2019-01-30T00:21:11.521Z,0.00
2019-01-30T00:22:11.427Z,0.00
2019-01-30T00:23:11.339Z,0.00
2019-01-30T00:24:11.256Z,0.00
2019-01-30T00:25:11.162Z,0.00
2019-01-30T00:26:11.065Z,0.00
2019-01-30T00:27:10.980Z,0.00
2019-01-30T00:28:10.890Z,0.00
2019-01-30T00:29:10.797Z,0.00
2019-01-30T00:30:10.710Z,0.00
2019-01-30T00:31:10.617Z,0.00
2019-01-30T00:32:10.527Z,0.00
2019-01-30T00:33:10.440Z,0.00
2019-01-30T00:34:10.346Z,0.00
2019-01-30T00:35:10.263Z,0.00
2019-01-30T00:36:10.168Z,0.00
2019-01-30T00:37:10.077Z,0.00
2019-01-30T00:38:09.996Z,0.00
2019-01-30T00:39:09.897Z,0.00
2019-01-30T00:40:09.809Z,0.00
2019-01-30T00:41:09.720Z,0.00
2019-01-30T00:42:09.626Z,0.00
2019-01-30T00:43:09.539Z,0.00
2019-01-30T00:44:09.447Z,0.00
2019-01-30T00:45:09.367Z,0.00
2019-01-30T00:46:09.268Z,0.00
2019-01-30T00:47:15.806Z,0.00
2019-01-30T00:48:09.087Z,0.00
2019-01-30T00:49:08.998Z,0.00
2019-01-30T00:50:08.905Z,0.00
2019-01-30T00:51:08.815Z,0.00
2019-01-30T00:52:08.751Z,0.00
2019-01-30T00:53:08.636Z,0.00
2019-01-30T00:54:08.549Z,0.00
2019-01-30T00:55:08.456Z,0.00
2019-01-30T00:56:08.367Z,0.00
2019-01-30T00:57:08.290Z,0.00
2019-01-30T00:58:08.184Z,0.00
2019-01-30T00:59:08.097Z,0.00
2019-01-30T01:00:14.387Z,0.00
2019-01-30T01:01:07.917Z,0.00
2019-01-30T01:02:07.837Z,0.00
2019-01-30T01:03:07.737Z,0.00
2019-01-30T01:04:07.649Z,0.00
2019-01-30T01:05:07.561Z,0.00
2019-01-30T01:06:07.465Z,0.00
2019-01-30T01:07:07.376Z,0.00
2019-01-30T01:08:07.288Z,0.00
2019-01-30T01:09:07.198Z,0.00
2019-01-30T01:10:07.105Z,0.00
2019-01-30T01:11:07.022Z,0.00
2019-01-30T01:12:06.926Z,0.00
2019-01-30T01:13:06.835Z,0.00
2019-01-30T01:14:06.750Z,0.00
2019-01-30T01:15:06.664Z,0.00
2019-01-30T01:16:06.567Z,0.00
2019-01-30T01:17:06.476Z,0.00
2019-01-30T01:18:06.385Z,0.00
2019-01-30T01:19:06.299Z,0.00
2019-01-30T01:20:06.227Z,0.00
2019-01-30T01:21:06.124Z,0.00
2019-01-30T01:22:06.033Z,0.00
2019-01-30T01:23:05.939Z,0.00
2019-01-30T01:24:05.851Z,0.00
2019-01-30T01:25:05.763Z,0.00
2019-01-30T01:26:05.669Z,0.00
2019-01-30T01:27:05.577Z,0.00
2019-01-30T01:28:05.587Z,0.00
2019-01-30T01:29:05.395Z,0.00
2019-01-30T01:30:05.314Z,0.00
2019-01-30T01:31:05.217Z,0.00
2019-01-30T01:32:05.128Z,0.00
2019-01-30T01:33:05.036Z,0.00
2019-01-30T01:34:04.945Z,0.00
2019-01-30T01:35:04.855Z,0.00
2019-01-30T01:36:04.765Z,0.00
2019-01-30T01:37:04.678Z,0.00
2019-01-30T01:38:04.620Z,0.00
2019-01-30T01:39:04.496Z,0.00
2019-01-30T01:40:04.408Z,0.00
2019-01-30T01:41:04.316Z,0.00
2019-01-30T01:42:04.228Z,0.00
2019-01-30T01:43:04.135Z,0.00
2019-01-30T01:44:04.046Z,0.00
2019-01-30T01:45:03.955Z,0.00
2019-01-30T01:46:03.864Z,0.00
2019-01-30T01:47:03.775Z,0.00
2019-01-30T01:48:03.697Z,0.00
2019-01-30T01:49:03.599Z,0.00
2019-01-30T01:50:03.504Z,0.00
2019-01-30T01:51:03.419Z,0.00
2019-01-30T01:52:03.325Z,0.00
2019-01-30T01:53:03.234Z,0.00
2019-01-30T01:54:03.143Z,0.00
2019-01-30T01:55:03.058Z,0.00
2019-01-30T01:56:02.964Z,0.00
2019-01-30T01:57:02.876Z,0.00
2019-01-30T01:58:02.798Z,0.00
2019-01-30T01:59:02.695Z,0.00
2019-01-30T02:00:02.625Z,0.00
2019-01-30T02:01:02.515Z,0.00
2019-01-30T02:02:02.424Z,0.00
2019-01-30T02:03:02.345Z,0.00
2019-01-30T02:04:02.244Z,0.00
2019-01-30T02:05:02.153Z,0.00
2019-01-30T02:06:02.068Z,0.00
2019-01-30T02:07:01.978Z,0.00
2019-01-30T02:08:01.883Z,0.00
2019-01-30T02:09:01.794Z,0.00
2019-01-30T02:10:01.704Z,0.00
2019-01-30T02:11:01.626Z,0.00
2019-01-30T02:12:01.522Z,0.00
2019-01-30T02:13:01.432Z,0.00
2019-01-30T02:14:01.343Z,0.00
2019-01-30T02:15:01.251Z,0.00
2019-01-30T02:16:01.186Z,0.00
2019-01-30T02:17:01.072Z,0.00
2019-01-30T02:18:00.981Z,0.00
2019-01-30T02:19:00.890Z,0.00
2019-01-30T02:20:00.802Z,0.00
2019-01-30T02:21:00.722Z,0.00
2019-01-30T02:22:00.625Z,0.00
2019-01-30T02:23:00.536Z,0.00
2019-01-30T02:24:00.438Z,0.00
2019-01-30T02:25:00.348Z,0.00
2019-01-30T02:26:00.262Z,0.00
2019-01-30T02:27:00.167Z,0.00
2019-01-30T02:28:00.093Z,0.00
2019-01-30T02:28:59.992Z,0.00
2019-01-30T02:29:59.902Z,0.00
2019-01-30T02:30:59.808Z,0.00
2019-01-30T02:31:59.720Z,0.00
2019-01-30T02:32:59.626Z,0.00
2019-01-30T02:33:59.547Z,0.00
2019-01-30T02:34:59.446Z,0.00
2019-01-30T02:35:59.370Z,0.00
2019-01-30T02:36:59.276Z,0.00
2019-01-30T02:37:59.173Z,0.00
2019-01-30T02:38:59.093Z,0.00
2019-01-30T02:39:58.997Z,0.00
2019-01-30T02:40:58.905Z,0.00
2019-01-30T02:41:58.812Z,0.00
2019-01-30T02:42:58.722Z,0.00
2019-01-30T02:43:58.671Z,0.00
2019-01-30T02:44:58.543Z,0.00
2019-01-30T02:45:58.457Z,0.00
2019-01-30T02:46:58.368Z,0.00
2019-01-30T02:47:58.277Z,0.00
2019-01-30T02:48:58.180Z,0.00
2019-01-30T02:49:58.091Z,0.00
2019-01-30T02:50:58.007Z,0.00
2019-01-30T02:51:57.922Z,0.00
2019-01-30T02:52:57.819Z,0.00
2019-01-30T02:53:57.728Z,0.00
2019-01-30T02:54:57.638Z,0.00
2019-01-30T02:55:57.563Z,0.00
2019-01-30T02:56:57.462Z,0.00
2019-01-30T02:57:57.373Z,0.00
2019-01-30T02:58:57.277Z,0.00
2019-01-30T02:59:57.195Z,0.00
2019-01-30T03:00:59.437Z,0.00
2019-01-30T03:01:57.005Z,0.00
2019-01-30T03:02:56.916Z,0.00
2019-01-30T03:03:56.826Z,0.00
2019-01-30T03:04:56.741Z,0.00
2019-01-30T03:05:56.645Z,0.00
2019-01-30T03:06:56.671Z,0.00
2019-01-30T03:07:56.465Z,0.00
2019-01-30T03:08:56.383Z,0.00
2019-01-30T03:09:56.286Z,0.00
2019-01-30T03:10:56.195Z,0.00
2019-01-30T03:11:56.109Z,0.00
2019-01-30T03:12:56.015Z,0.00
2019-01-30T03:13:55.922Z,0.00
2019-01-30T03:14:55.835Z,0.00
2019-01-30T03:15:55.746Z,0.00
2019-01-30T03:16:55.657Z,0.00
2019-01-30T03:17:55.572Z,0.00
2019-01-30T03:18:55.473Z,0.00
2019-01-30T03:19:55.387Z,0.00
2019-01-30T03:20:55.296Z,0.00
2019-01-30T03:21:55.202Z,0.00
2019-01-30T03:22:55.116Z,0.00
2019-01-30T03:23:55.021Z,0.00
2019-01-30T03:24:54.942Z,0.00
2019-01-30T03:25:54.840Z,0.00
2019-01-30T03:26:54.752Z,0.00
2019-01-30T03:27:54.665Z,0.00
2019-01-30T03:28:54.572Z,0.00
2019-01-30T03:29:54.490Z,0.00
2019-01-30T03:30:54.394Z,0.00
2019-01-30T03:31:54.310Z,0.00
2019-01-30T03:32:54.239Z,0.00
2019-01-30T03:33:54.116Z,0.00
2019-01-30T03:34:54.027Z,0.00
2019-01-30T03:35:53.956Z,0.00
2019-01-30T03:36:53.899Z,0.00
2019-01-30T03:37:53.758Z,0.00
2019-01-30T03:38:53.666Z,0.00
2019-01-30T03:39:53.574Z,0.00
2019-01-30T03:40:53.485Z,0.00
2019-01-30T03:41:53.395Z,0.00
2019-01-30T03:42:53.313Z,0.00
2019-01-30T03:43:53.214Z,0.00
2019-01-30T03:44:53.125Z,0.00
2019-01-30T03:45:53.031Z,0.00
2019-01-30T03:46:52.942Z,0.00
2019-01-30T03:47:52.851Z,0.00
2019-01-30T03:48:52.763Z,0.00
2019-01-30T03:49:52.673Z,0.00
2019-01-30T03:50:52.580Z,0.00
2019-01-30T03:51:52.519Z,0.00
2019-01-30T03:52:52.411Z,0.00
2019-01-30T03:53:52.308Z,0.00
2019-01-30T03:54:52.220Z,0.00
2019-01-30T03:55:52.129Z,0.00
2019-01-30T03:56:52.039Z,0.00
2019-01-30T03:57:51.962Z,0.00
2019-01-30T03:58:51.861Z,0.00
2019-01-30T03:59:51.776Z,0.00
2019-01-30T04:00:51.677Z,0.00
2019-01-30T04:01:51.586Z,0.00
2019-01-30T04:02:51.522Z,0.00
2019-01-30T04:03:51.411Z,0.00
2019-01-30T04:04:51.317Z,0.00
2019-01-30T04:05:51.225Z,0.00
2019-01-30T04:06:51.136Z,0.00
2019-01-30T04:07:51.142Z,0.00
2019-01-30T04:08:50.961Z,0.00
2019-01-30T04:09:50.866Z,0.00
2019-01-30T04:10:50.773Z,0.00
2019-01-30T04:11:50.719Z,0.00
2019-01-30T04:12:50.591Z,0.00
2019-01-30T04:13:50.501Z,0.00
2019-01-30T04:14:50.412Z,0.00
2019-01-30T04:15:50.320Z,0.00
2019-01-30T04:16:50.236Z,0.00
2019-01-30T04:17:50.141Z,0.00
2019-01-30T04:18:50.048Z,0.00
2019-01-30T04:19:49.958Z,0.00
2019-01-30T04:20:49.876Z,0.00
2019-01-30T04:21:49.784Z,0.00
2019-01-30T04:22:49.701Z,0.00
2019-01-30T04:23:49.595Z,0.00
2019-01-30T04:24:49.509Z,0.00
2019-01-30T04:25:49.421Z,0.00
2019-01-30T04:26:49.327Z,0.00
2019-01-30T04:27:49.257Z,0.00
2019-01-30T04:28:49.142Z,0.00
2019-01-30T04:29:49.051Z,0.00
2019-01-30T04:30:48.994Z,0.00
2019-01-30T04:31:48.872Z,0.00
2019-01-30T04:32:48.783Z,0.00
2019-01-30T04:33:48.691Z,0.00
2019-01-30T04:34:48.599Z,0.00
2019-01-30T04:35:48.533Z,0.00
2019-01-30T04:36:48.440Z,0.00
2019-01-30T04:37:48.328Z,0.00
2019-01-30T04:38:48.245Z,0.00
2019-01-30T04:39:48.149Z,0.00
2019-01-30T04:40:48.069Z,0.00
2019-01-30T04:41:47.979Z,0.00
2019-01-30T04:42:47.875Z,0.00
2019-01-30T04:43:47.789Z,0.00
2019-01-30T04:44:47.703Z,0.00
2019-01-30T04:45:47.607Z,0.00
2019-01-30T04:46:47.512Z,0.00
2019-01-30T04:47:47.522Z,0.00
2019-01-30T04:48:47.333Z,0.00
2019-01-30T04:49:47.239Z,0.00
2019-01-30T04:50:47.148Z,0.00
2019-01-30T04:51:47.063Z,0.00
2019-01-30T04:52:46.974Z,0.00
2019-01-30T04:53:46.888Z,0.00
2019-01-30T04:54:46.788Z,0.00
2019-01-30T04:55:46.696Z,0.00
2019-01-30T04:56:46.635Z,0.00
2019-01-30T04:57:46.517Z,0.00
2019-01-30T04:58:46.433Z,0.00
2019-01-30T04:59:46.340Z,0.00
2019-01-30T05:00:46.259Z,0.00
2019-01-30T05:01:49.603Z,0.00
2019-01-30T05:02:46.075Z,0.00
2019-01-30T05:03:45.980Z,0.00
2019-01-30T05:04:45.885Z,0.00
2019-01-30T05:05:45.809Z,0.00
2019-01-30T05:06:45.701Z,0.00
2019-01-30T05:07:45.614Z,0.00
2019-01-30T05:08:45.573Z,0.00
2019-01-30T05:09:45.434Z,0.00
2019-01-30T05:10:45.343Z,0.00
2019-01-30T05:11:45.255Z,0.00
2019-01-30T05:12:45.162Z,0.00
2019-01-30T05:13:45.076Z,0.00
2019-01-30T05:14:44.979Z,0.00
2019-01-30T05:15:44.885Z,0.00
2019-01-30T05:16:44.792Z,0.00
2019-01-30T05:17:44.705Z,0.00
2019-01-30T05:18:44.615Z,0.00
2019-01-30T05:19:44.528Z,0.00
2019-01-30T05:20:44.451Z,0.00
2019-01-30T05:21:44.355Z,0.00
2019-01-30T05:22:44.250Z,0.00
2019-01-30T05:23:44.165Z,0.00
2019-01-30T05:24:44.070Z,0.00
2019-01-30T05:25:43.980Z,0.00
2019-01-30T05:26:43.905Z,0.00
2019-01-30T05:27:43.799Z,0.00
2019-01-30T05:28:43.709Z,0.00
2019-01-30T05:29:43.718Z,0.00
2019-01-30T05:30:43.530Z,0.00
2019-01-30T05:31:43.442Z,0.00
2019-01-30T05:32:43.445Z,0.00
2019-01-30T05:33:43.255Z,0.00
2019-01-30T05:34:43.165Z,0.00
2019-01-30T05:35:43.176Z,0.00
2019-01-30T05:36:42.986Z,0.00
2019-01-30T05:37:42.900Z,0.00
2019-01-30T05:38:42.807Z,0.00
2019-01-30T05:39:42.712Z,0.00
2019-01-30T05:40:42.622Z,0.00
2019-01-30T05:41:42.534Z,0.00
2019-01-30T05:42:42.445Z,0.00
2019-01-30T05:43:42.650Z,0.00
2019-01-30T05:44:42.263Z,0.00
2019-01-30T05:45:42.168Z,0.00
2019-01-30T05:46:42.079Z,0.00
2019-01-30T05:47:41.989Z,0.00
2019-01-30T05:48:41.896Z,0.00
2019-01-30T05:49:41.805Z,0.00
2019-01-30T05:50:41.728Z,0.00
2019-01-30T05:51:41.630Z,0.00
2019-01-30T05:52:41.535Z,0.00
2019-01-30T05:53:41.446Z,0.00
2019-01-30T05:54:41.359Z,0.00
2019-01-30T05:55:41.267Z,0.00
2019-01-30T05:56:41.184Z,0.00
2019-01-30T05:57:41.078Z,0.00
2019-01-30T05:58:40.998Z,0.00
2019-01-30T05:59:40.900Z,0.00
2019-01-30T06:00:40.809Z,0.00
2019-01-30T06:01:40.722Z,0.00
2019-01-30T06:02:40.628Z,0.00
2019-01-30T06:03:40.539Z,0.00
2019-01-30T06:04:40.445Z,0.00
2019-01-30T06:05:40.359Z,0.00
2019-01-30T06:06:40.263Z,0.00
2019-01-30T06:07:40.180Z,0.00
2019-01-30T06:08:40.081Z,0.00
2019-01-30T06:09:39.991Z,0.00
2019-01-30T06:10:39.901Z,0.00
2019-01-30T06:11:39.818Z,0.00
2019-01-30T06:12:39.728Z,0.00
2019-01-30T06:13:39.636Z,0.00
2019-01-30T06:14:39.538Z,0.00
2019-01-30T06:15:39.447Z,0.00
2019-01-30T06:16:39.362Z,0.00
2019-01-30T06:17:39.265Z,4.00
2019-01-30T06:18:39.175Z,0.00
2019-01-30T06:19:39.084Z,4.00
2019-01-30T06:20:38.998Z,4.00
2019-01-30T06:21:38.903Z,4.00
2019-01-30T06:22:38.825Z,4.00
2019-01-30T06:23:38.727Z,4.00
2019-01-30T06:24:38.635Z,4.00
2019-01-30T06:25:38.541Z,8.00
2019-01-30T06:26:38.456Z,8.00
2019-01-30T06:27:38.362Z,8.00
2019-01-30T06:28:38.273Z,12.00
2019-01-30T06:29:38.175Z,12.00
2019-01-30T06:30:38.086Z,16.00
2019-01-30T06:31:38.000Z,20.00
2019-01-30T06:32:37.906Z,24.00
2019-01-30T06:33:37.814Z,28.00
2019-01-30T06:34:37.724Z,32.00
2019-01-30T06:35:37.634Z,40.00
2019-01-30T06:36:37.544Z,44.00
2019-01-30T06:37:37.457Z,52.00
2019-01-30T06:38:37.367Z,56.00
2019-01-30T06:39:37.276Z,68.00
2019-01-30T06:40:37.182Z,76.00
2019-01-30T06:41:37.094Z,84.00
2019-01-30T06:42:37.093Z,92.00
2019-01-30T06:43:36.911Z,100.00
2019-01-30T06:44:36.817Z,104.00
2019-01-30T06:45:36.736Z,108.00
2019-01-30T06:46:36.636Z,112.00
2019-01-30T06:47:36.550Z,124.00
2019-01-30T06:48:36.454Z,132.00
2019-01-30T06:49:36.363Z,140.00
2019-01-30T06:50:36.310Z,152.00
2019-01-30T06:51:36.184Z,164.00
2019-01-30T06:52:36.095Z,172.00
2019-01-30T06:53:36.001Z,188.00
2019-01-30T06:54:35.914Z,204.00
2019-01-30T06:55:35.831Z,216.00
2019-01-30T06:56:35.735Z,232.00
2019-01-30T06:57:35.638Z,252.00
2019-01-30T06:58:35.552Z,272.00
2019-01-30T06:59:35.459Z,292.00
2019-01-30T07:00:35.367Z,316.00
2019-01-30T07:01:35.276Z,336.00
2019-01-30T07:02:35.189Z,356.00
2019-01-30T07:03:35.129Z,384.00
2019-01-30T07:04:35.011Z,404.00
2019-01-30T07:05:34.914Z,428.00
2019-01-30T07:06:34.822Z,452.00
2019-01-30T07:07:34.739Z,476.00
2019-01-30T07:08:34.651Z,504.00
2019-01-30T07:09:34.550Z,528.00
2019-01-30T07:10:34.461Z,556.00
2019-01-30T07:11:34.368Z,580.00
2019-01-30T07:12:34.281Z,608.00
2019-01-30T07:13:34.195Z,632.00
2019-01-30T07:14:34.098Z,660.00
2019-01-30T07:15:34.023Z,688.00
2019-01-30T07:16:33.920Z,716.00
2019-01-30T07:17:33.826Z,740.00
2019-01-30T07:18:33.761Z,768.00
2019-01-30T07:19:33.647Z,792.00
2019-01-30T07:20:33.561Z,816.00
2019-01-30T07:21:33.469Z,848.00
2019-01-30T07:22:33.375Z,880.00
2019-01-30T07:23:33.297Z,904.00
2019-01-30T07:24:33.195Z,932.00
2019-01-30T07:25:33.107Z,960.00
2019-01-30T07:26:33.013Z,984.00
2019-01-30T07:27:32.927Z,1008.00
2019-01-30T07:28:32.833Z,1040.00
2019-01-30T07:29:32.741Z,1068.00
2019-01-30T07:30:32.654Z,1100.00
2019-01-30T07:31:32.560Z,1128.00
2019-01-30T07:32:41.937Z,1156.00
2019-01-30T07:33:32.379Z,1176.00
2019-01-30T07:34:32.289Z,1200.00
2019-01-30T07:35:32.200Z,1224.00
2019-01-30T07:36:32.112Z,1244.00
2019-01-30T07:37:32.027Z,1268.00
2019-01-30T07:38:31.927Z,1292.00
2019-01-30T07:39:31.837Z,1328.00
2019-01-30T07:40:31.750Z,1360.00
2019-01-30T07:41:31.660Z,1384.00
2019-01-30T07:42:31.568Z,1404.00
2019-01-30T07:43:31.482Z,1424.00
2019-01-30T07:44:31.392Z,1444.00
2019-01-30T07:45:31.298Z,1452.00
2019-01-30T07:46:31.211Z,1456.00
2019-01-30T07:47:31.131Z,1464.00
2019-01-30T07:48:31.028Z,1476.00
2019-01-30T07:49:30.936Z,1488.00
2019-01-30T07:50:30.848Z,1504.00
2019-01-30T07:51:30.760Z,1528.00
2019-01-30T07:52:32.749Z,1552.00
2019-01-30T07:53:30.580Z,1576.00
2019-01-30T07:54:30.493Z,1600.00
2019-01-30T07:55:30.400Z,1620.00
2019-01-30T07:56:30.311Z,1632.00
2019-01-30T07:57:30.219Z,1652.00
2019-01-30T07:58:30.128Z,1664.00
2019-01-30T07:59:32.012Z,1676.00
2019-01-30T08:00:29.952Z,1704.00
2019-01-30T08:01:29.859Z,1740.00
2019-01-30T08:02:29.773Z,1780.00
2019-01-30T08:03:29.683Z,1840.00
2019-01-30T08:04:29.591Z,1896.00
2019-01-30T08:05:29.503Z,1960.00
2019-01-30T08:06:29.413Z,2024.00
2019-01-30T08:07:29.320Z,2080.00
2019-01-30T08:08:29.230Z,2136.00
2019-01-30T08:09:29.150Z,2180.00
2019-01-30T08:10:29.052Z,2204.00
2019-01-30T08:11:28.968Z,2208.00
2019-01-30T08:12:28.873Z,2212.00
2019-01-30T08:13:28.780Z,2220.00
2019-01-30T08:14:28.712Z,2228.00
2019-01-30T08:15:28.603Z,2228.00
2019-01-30T08:16:28.513Z,2232.00
2019-01-30T08:17:28.426Z,2280.00
2019-01-30T08:18:28.337Z,2324.00
2019-01-30T08:19:28.292Z,2352.00
2019-01-30T08:20:28.158Z,2364.00
2019-01-30T08:21:28.103Z,2368.00
2019-01-30T08:22:27.981Z,2356.00
2019-01-30T08:23:28.261Z,2336.00
2019-01-30T08:24:28.175Z,2336.00
2019-01-30T08:25:27.740Z,2320.00
2019-01-30T08:26:28.019Z,2320.00
2019-01-30T08:27:27.855Z,2304.00
2019-01-30T08:28:27.553Z,2268.00
2019-01-30T08:29:27.369Z,2220.00
2019-01-30T08:30:27.408Z,2172.00
2019-01-30T08:31:27.388Z,2132.00
2019-01-30T08:32:27.200Z,2108.00
2019-01-30T08:33:26.995Z,2096.00
2019-01-30T08:34:26.907Z,2088.00
2019-01-30T08:35:26.815Z,2096.00
2019-01-30T08:36:26.730Z,2112.00
2019-01-30T08:37:26.638Z,2148.00
2019-01-30T08:38:26.549Z,2196.00
2019-01-30T08:39:26.460Z,2260.00
2019-01-30T08:40:26.366Z,2336.00
2019-01-30T08:41:26.281Z,2416.00
2019-01-30T08:42:26.196Z,2472.00
2019-01-30T08:43:26.150Z,2528.00
2019-01-30T08:44:26.010Z,2584.00
2019-01-30T08:45:25.928Z,2644.00
2019-01-30T08:46:25.836Z,2684.00
2019-01-30T08:47:25.748Z,2708.00
2019-01-30T08:48:28.400Z,2708.00
2019-01-30T08:49:25.569Z,2704.00
2019-01-30T08:50:25.477Z,2692.00
2019-01-30T08:51:25.436Z,2696.00
2019-01-30T08:52:25.301Z,2696.00
2019-01-30T08:53:25.213Z,2700.00
2019-01-30T08:54:25.123Z,2708.00
2019-01-30T08:55:25.041Z,2720.00
2019-01-30T08:56:24.946Z,2724.00
2019-01-30T08:57:24.855Z,2728.00
2019-01-30T08:58:24.772Z,2724.00
2019-01-30T08:59:24.686Z,2716.00
2019-01-30T09:00:24.591Z,2696.00
2019-01-30T09:01:24.500Z,2668.00
2019-01-30T09:02:24.410Z,2640.00
2019-01-30T09:03:24.321Z,2604.00
2019-01-30T09:04:24.234Z,2580.00
2019-01-30T09:05:24.144Z,2548.00
2019-01-30T09:06:24.070Z,2520.00
2019-01-30T09:07:23.966Z,2492.00
2019-01-30T09:08:23.880Z,2468.00
2019-01-30T09:09:23.793Z,2444.00
2019-01-30T09:10:23.705Z,2420.00
2019-01-30T09:11:23.613Z,2396.00
2019-01-30T09:12:23.522Z,2364.00
2019-01-30T09:13:25.626Z,2340.00
2019-01-30T09:14:23.347Z,2312.00
2019-01-30T09:15:23.259Z,2296.00
2019-01-30T09:16:23.171Z,2280.00
2019-01-30T09:17:23.080Z,2268.00
2019-01-30T09:18:22.993Z,2244.00
2019-01-30T09:19:22.901Z,2224.00
2019-01-30T09:20:22.813Z,2208.00
2019-01-30T09:21:22.723Z,2192.00
2019-01-30T09:22:22.636Z,2188.00
2019-01-30T09:23:22.549Z,2180.00
2019-01-30T09:24:22.462Z,2176.00
2019-01-30T09:25:22.368Z,2160.00
2019-01-30T09:26:22.281Z,2148.00
2019-01-30T09:27:24.202Z,2144.00
2019-01-30T09:28:22.107Z,2144.00
2019-01-30T09:29:22.020Z,2156.00
2019-01-30T09:30:21.925Z,2172.00
2019-01-30T09:31:21.859Z,2200.00
2019-01-30T09:32:21.746Z,2228.00
2019-01-30T09:33:25.807Z,2260.00
2019-01-30T09:34:21.569Z,2288.00
2019-01-30T09:35:21.533Z,2320.00
2019-01-30T09:36:21.397Z,2364.00
2019-01-30T09:37:21.302Z,2404.00
2019-01-30T09:38:21.250Z,2444.00
2019-01-30T09:39:21.126Z,2480.00
2019-01-30T09:40:21.066Z,2520.00
2019-01-30T09:41:20.949Z,2560.00
2019-01-30T09:42:20.900Z,2600.00
2019-01-30T09:43:20.771Z,2644.00
2019-01-30T09:44:20.682Z,2692.00
2019-01-30T09:45:20.617Z,2756.00
2019-01-30T09:46:20.504Z,2820.00
2019-01-30T09:47:20.469Z,2888.00
2019-01-30T09:48:20.328Z,2960.00
2019-01-30T09:49:20.238Z,3032.00
2019-01-30T09:50:20.155Z,3088.00
2019-01-30T09:51:20.118Z,3128.00
2019-01-30T09:52:26.644Z,3160.00
2019-01-30T09:53:19.963Z,3184.00
2019-01-30T09:54:19.799Z,3208.00
2019-01-30T09:55:19.713Z,3220.00
2019-01-30T09:56:19.619Z,3216.00
2019-01-30T09:57:19.532Z,3224.00
2019-01-30T09:58:19.447Z,3228.00
2019-01-30T09:59:19.364Z,3252.00
2019-01-30T10:00:19.265Z,3276.00
2019-01-30T10:01:19.177Z,3304.00
2019-01-30T10:02:19.086Z,3328.00
2019-01-30T10:03:18.998Z,3336.00
2019-01-30T10:04:19.551Z,3340.00
2019-01-30T10:05:18.820Z,3364.00
2019-01-30T10:06:18.733Z,3400.00
2019-01-30T10:07:18.645Z,3428.00
2019-01-30T10:08:18.557Z,3448.00
2019-01-30T10:09:18.465Z,3460.00
2019-01-30T10:10:18.379Z,3456.00
2019-01-30T10:11:18.291Z,3472.00
2019-01-30T10:12:18.200Z,3536.00
2019-01-30T10:13:18.117Z,3612.00
2019-01-30T10:14:18.023Z,3684.00
2019-01-30T10:15:17.937Z,3748.00
2019-01-30T10:16:17.851Z,3812.00
2019-01-30T10:17:17.758Z,3896.00
2019-01-30T10:18:17.672Z,3976.00
2019-01-30T10:19:17.580Z,4036.00
2019-01-30T10:20:17.494Z,4068.00
2019-01-30T10:21:17.404Z,4080.00
2019-01-30T10:22:17.318Z,4068.00
2019-01-30T10:23:17.231Z,4072.00
2019-01-30T10:24:17.141Z,4100.00
2019-01-30T10:25:17.057Z,4140.00
2019-01-30T10:26:16.966Z,4192.00
2019-01-30T10:27:16.880Z,4248.00
2019-01-30T10:28:17.199Z,4260.00
2019-01-30T10:29:16.700Z,4224.00
2019-01-30T10:30:16.614Z,4160.00
2019-01-30T10:31:16.524Z,4108.00
2019-01-30T10:32:16.438Z,4076.00
2019-01-30T10:33:16.351Z,4052.00
2019-01-30T10:34:16.269Z,4056.00
2019-01-30T10:35:16.172Z,4092.00
2019-01-30T10:36:16.086Z,4132.00
2019-01-30T10:37:15.997Z,4160.00
2019-01-30T10:38:15.909Z,4152.00
2019-01-30T10:39:15.820Z,4136.00
2019-01-30T10:40:15.751Z,4080.00
2019-01-30T10:41:15.645Z,4008.00
2019-01-30T10:42:15.559Z,3928.00
2019-01-30T10:43:15.472Z,3856.00
2019-01-30T10:44:15.386Z,3804.00
2019-01-30T10:45:15.293Z,3776.00
2019-01-30T10:46:15.205Z,3776.00
2019-01-30T10:47:15.118Z,3796.00
2019-01-30T10:48:15.092Z,3788.00
2019-01-30T10:49:14.946Z,3752.00
2019-01-30T10:50:14.854Z,3712.00
2019-01-30T10:51:14.778Z,3776.00
2019-01-30T10:52:14.680Z,3976.00
2019-01-30T10:53:14.594Z,4240.00
2019-01-30T10:54:14.539Z,4496.00
2019-01-30T10:55:14.419Z,4672.00
2019-01-30T10:56:16.534Z,4748.00
2019-01-30T10:57:14.243Z,4760.00
2019-01-30T10:58:14.154Z,4748.00
2019-01-30T10:59:21.726Z,4764.00
2019-01-30T11:01:18.517Z,4848.00
2019-01-30T11:02:18.261Z,4880.00
2019-01-30T11:04:22.584Z,4952.00
2019-01-30T11:05:22.448Z,4984.00
2019-01-30T11:07:26.787Z,5072.00
2019-01-30T11:08:26.653Z,5140.00
2019-01-30T11:10:19.895Z,5216.00
2019-01-30T11:11:19.780Z,5204.00
2019-01-30T11:13:24.192Z,5084.00
2019-01-30T11:14:23.981Z,5128.00
2019-01-30T11:16:28.315Z,5212.00
2019-01-30T11:17:28.247Z,5228.00
2019-01-30T11:19:32.591Z,5276.00
2019-01-30T11:20:32.371Z,5380.00
2019-01-30T11:22:36.663Z,5860.00
2019-01-30T11:23:36.567Z,6048.00
2019-01-30T11:25:40.912Z,6376.00
2019-01-30T11:26:40.777Z,6592.00
2019-01-30T11:27:40.690Z,6900.00
2019-01-30T11:28:40.619Z,7056.00
2019-01-30T11:29:40.511Z,7232.00
2019-01-30T11:30:40.438Z,7360.00
2019-01-30T11:31:40.338Z,7552.00
2019-01-30T11:32:40.249Z,7644.00
2019-01-30T11:33:40.162Z,7704.00
2019-01-30T11:34:40.079Z,7792.00
2019-01-30T11:35:39.990Z,7860.00
2019-01-30T11:36:39.903Z,7876.00
2019-01-30T11:37:39.816Z,7800.00
2019-01-30T11:38:39.728Z,7612.00
2019-01-30T11:39:39.669Z,7432.00
2019-01-30T11:40:39.557Z,7312.00
2019-01-30T11:41:39.473Z,7180.00
2019-01-30T11:42:39.383Z,7236.00
2019-01-30T11:43:39.307Z,7508.00
2019-01-30T11:44:39.213Z,7720.00
2019-01-30T11:45:39.124Z,7880.00
2019-01-30T11:46:39.039Z,7976.00
2019-01-30T11:47:38.953Z,7844.00
2019-01-30T11:48:38.870Z,7400.00
2019-01-30T11:49:38.782Z,6944.00
2019-01-30T11:50:38.694Z,6708.00
2019-01-30T11:51:38.609Z,6568.00
2019-01-30T11:52:38.524Z,6472.00
2019-01-30T11:53:38.441Z,6416.00
2019-01-30T11:54:39.127Z,6516.00
2019-01-30T11:55:39.053Z,6716.00
2019-01-30T11:56:38.177Z,7092.00
2019-01-30T11:57:38.106Z,7648.00
2019-01-30T11:58:38.007Z,8192.00
2019-01-30T11:59:37.921Z,8016.00
2019-01-30T12:00:37.834Z,7672.00
2019-01-30T12:01:37.748Z,7388.00
2019-01-30T12:02:47.469Z,7308.00
2019-01-30T12:03:37.576Z,7392.00
2019-01-30T12:04:37.494Z,8248.00
2019-01-30T12:05:37.406Z,8484.00
2019-01-30T12:06:37.320Z,7756.00
2019-01-30T12:07:37.237Z,7688.00
2019-01-30T12:08:37.154Z,8036.00
2019-01-30T12:09:37.063Z,8632.00
2019-01-30T12:10:36.982Z,9148.00
2019-01-30T12:11:36.892Z,9764.00
2019-01-30T12:12:36.806Z,9884.00
2019-01-30T12:13:36.722Z,9816.00
2019-01-30T12:14:36.739Z,9592.00
2019-01-30T12:15:38.557Z,9396.00
2019-01-30T12:16:36.464Z,9364.00
2019-01-30T12:17:36.379Z,9072.00
2019-01-30T12:18:36.294Z,8648.00
2019-01-30T12:19:36.209Z,8124.00
2019-01-30T12:20:36.126Z,8200.00
2019-01-30T12:21:36.041Z,7892.00
2019-01-30T12:22:35.960Z,7348.00
2019-01-30T12:23:35.871Z,6832.00
2019-01-30T12:24:35.787Z,6352.00
2019-01-30T12:25:35.703Z,6012.00
2019-01-30T12:26:35.621Z,5600.00
2019-01-30T12:27:35.534Z,5496.00
2019-01-30T12:28:35.452Z,5504.00
2019-01-30T12:29:35.368Z,5480.00
2019-01-30T12:30:35.287Z,5468.00
2019-01-30T12:31:35.196Z,5536.00
2019-01-30T12:32:35.112Z,6032.00
2019-01-30T12:33:35.030Z,6540.00
2019-01-30T12:34:34.943Z,6536.00
2019-01-30T12:35:34.860Z,6680.00
2019-01-30T12:36:34.774Z,6728.00
2019-01-30T12:37:34.687Z,6756.00
2019-01-30T12:38:34.603Z,6832.00
2019-01-30T12:39:34.525Z,6960.00
2019-01-30T12:40:34.438Z,7000.00
2019-01-30T12:41:35.813Z,6892.00
2019-01-30T12:42:34.267Z,6772.00
2019-01-30T12:43:34.180Z,6552.00
2019-01-30T12:44:34.096Z,6244.00
2019-01-30T12:45:34.014Z,6024.00
2019-01-30T12:46:34.016Z,5816.00
2019-01-30T12:47:33.839Z,5628.00
2019-01-30T12:48:33.755Z,5440.00
2019-01-30T12:49:33.670Z,5156.00
2019-01-30T12:50:33.614Z,4896.00
2019-01-30T12:51:36.021Z,4764.00